Ely Municipal Airport
KELO : now visible

Airfield :











YOU CAN JOIN US ON...

 
LOGIN :

Register | Disclaimer

   EN    FR    IT 

 









Legend :    VFR   Marginal VFR   IFR   Intensive IFR   Very Intensive IFR
Visi :
Ceiling :
>= 8 km
>= 3000ft
5 to 8 km
1000 to 3000 ft
1500m to 5 km
500 to 1000 ft
800 to 1500m
200 to 500 ft
< 800m
< 200 ft
Symbols :   Thunderstorms  Fog  Heavy snow  Heavy precipitations  Wind > 20 kt







- Airport Elevation : 1456 ft


KELO - Ely Municipal

CURRENT METAR :
  • 181938Z AUTO 00000KT 10SM SCT019 SCT035 SCT060 24/19 A2962 RMK AO2

EXPIRED METARs :
  • 181916Z AUTO 00000KT 10SM SCT019 SCT060 SCT090 24/20 A2963 RMK AO2
  • 181856Z AUTO 25004KT 10SM SCT013 SCT090 24/21 A2964 RMK AO2
  • 181836Z AUTO 00000KT 10SM SCT011 SCT080 23/21 A2964 RMK AO2
  • 181817Z AUTO 20003KT 10SM SCT010 SCT014 BKN080 23/21 A2965 RMK AO2 LTG DSNT SE
  • 181755Z AUTO 20004KT 10SM SCT012 BKN100 22/21 A2965 RMK AO2 LTG DSNT NW THRU NE
  • 181736Z AUTO 21004KT 10SM BKN100 22/21 A2965 RMK AO2 LTG DSNT N
  • 181716Z AUTO 15003KT 10SM SCT080 SCT110 22/21 A2965 RMK AO2 LTG DSNT SE

TAF N/A
KZMP FIR / North America



MET'MAP, your aeronautical weather chart ! - Copyright ORBIFLY December 2007 - Disclaimer

ORBIFLY MET'MAP TEAM :

Programming & Development : Alexandra Zaïnal
Concept & Development : Baudouin d'Aumeries
Co-Development & Prog : Marc-Olivier Méhu
Technical & hardware support : Manuel Goepfert

Contact : metmap@orbifly.com




SOURCES & CREDITS :

   NOAA       Earth
Advisory